Time;durP1;ratioP1;P1;durP2;ratioP2;P2;SDS_P1;SDS_P2;PMS_P1;PMS_P2;Temp;Humidity;BMP_temperature;BMP_pressure;BME280_temperature;BME280_humidity;BME280_pressure;Samples;Min_cycle;Max_cycle;Signal;HPM_P1;HPM_P2
2022/02/25 00:01:02;;;;;;;1.83;1.13;;;;;;;3.35;100.00;98450.59;5112963;28;20672;-66
2022/02/25 00:03:28;;;;;;;2.63;1.30;;;;;;;3.30;100.00;98455.09;5116636;28;20211;-66
2022/02/25 00:05:56;;;;;;;2.90;1.10;;;;;;;3.23;100.00;98465.81;5116851;28;20217;-66
2022/02/25 00:08:22;;;;;;;2.70;1.00;;;;;;;3.07;100.00;98468.09;5116757;28;20574;-66
2022/02/25 00:10:49;;;;;;;5.13;1.60;;;;;;;3.12;100.00;98458.38;5117123;28;20260;-66
2022/02/25 00:13:15;;;;;;;1.57;1.20;;;;;;;3.06;100.00;98463.78;5117077;28;20211;-65
2022/02/25 00:15:42;;;;;;;2.60;1.27;;;;;;;2.94;100.00;98468.59;5116923;28;20220;-65
2022/02/25 00:18:08;;;;;;;3.10;1.20;;;;;;;2.81;100.00;98483.81;5114868;28;20217;-67
2022/02/25 00:20:35;;;;;;;3.83;1.40;;;;;;;2.74;100.00;98492.75;5116853;28;20213;-66
2022/02/25 00:23:04;;;;;;;2.63;1.40;;;;;;;2.65;100.00;98487.84;5114944;28;20236;-66
2022/02/25 00:25:30;;;;;;;1.90;1.30;;;;;;;2.56;100.00;98480.28;5116485;28;20212;-66
2022/02/25 00:27:57;;;;;;;3.30;1.40;;;;;;;2.62;100.00;98487.91;5116673;28;20212;-66
2022/02/25 00:30:23;;;;;;;2.13;1.60;;;;;;;2.64;100.00;98496.53;5115707;28;20679;-66
2022/02/25 00:32:50;;;;;;;1.53;1.20;;;;;;;2.50;100.00;98497.91;5114638;28;20209;-66
2022/02/25 00:35:16;;;;;;;2.40;1.33;;;;;;;2.40;100.00;98510.34;5116599;28;20218;-66
2022/02/25 00:37:43;;;;;;;1.70;1.20;;;;;;;2.39;100.00;98515.66;5116265;28;20224;-66
2022/02/25 00:40:11;;;;;;;2.10;1.40;;;;;;;2.36;100.00;98529.63;5116557;28;20221;-67
2022/02/25 00:42:38;;;;;;;1.70;1.33;;;;;;;2.33;100.00;98516.66;5116136;28;20248;-66
2022/02/25 00:45:06;;;;;;;4.43;1.60;;;;;;;2.32;100.00;98546.25;5116412;28;20215;-67
2022/02/25 00:47:33;;;;;;;2.13;1.27;;;;;;;2.28;100.00;98543.78;5115861;28;20215;-66
2022/02/25 00:49:59;;;;;;;2.47;1.70;;;;;;;2.23;100.00;98546.53;5115126;28;20251;-66
2022/02/25 00:52:26;;;;;;;2.47;1.50;;;;;;;2.26;100.00;98551.66;5115899;28;20211;-66
2022/02/25 00:54:52;;;;;;;3.47;1.63;;;;;;;2.31;100.00;98555.00;5116320;28;20222;-66
2022/02/25 00:57:20;;;;;;;2.80;1.73;;;;;;;2.28;100.00;98549.84;5115985;28;20219;-66
2022/02/25 00:59:47;;;;;;;2.93;1.83;;;;;;;2.31;100.00;98543.69;5115968;28;20692;-66
2022/02/25 01:02:13;;;;;;;2.27;1.70;;;;;;;2.27;100.00;98550.75;5116180;28;20239;-66
2022/02/25 01:04:40;;;;;;;2.70;1.67;;;;;;;2.29;100.00;98551.56;5115949;28;20222;-66
2022/02/25 01:07:06;;;;;;;3.97;1.70;;;;;;;2.27;100.00;98557.75;5115975;28;20215;-66
2022/02/25 01:09:33;;;;;;;3.17;1.77;;;;;;;2.18;100.00;98552.78;5115684;28;20234;-66
2022/02/25 01:11:59;;;;;;;3.37;1.80;;;;;;;2.14;100.00;98552.00;5115846;28;20238;-66
2022/02/25 01:14:28;;;;;;;4.37;1.73;;;;;;;2.04;100.00;98550.59;5112820;28;20301;-66
2022/02/25 01:16:55;;;;;;;1.67;1.57;;;;;;;2.08;100.00;98552.19;5115693;28;20211;-66
2022/02/25 01:19:21;;;;;;;2.03;1.67;;;;;;;2.06;100.00;98553.13;5115594;28;20208;-67
2022/02/25 01:21:48;;;;;;;3.00;1.53;;;;;;;2.18;100.00;98571.91;5115370;28;20724;-67
2022/02/25 01:24:14;;;;;;;2.30;1.70;;;;;;;2.11;100.00;98567.75;5115634;28;20239;-67
2022/02/25 01:26:41;;;;;;;3.07;1.60;;;;;;;2.14;100.00;98566.81;5115734;28;20240;-67
2022/02/25 01:29:07;;;;;;;2.77;1.30;;;;;;;2.06;100.00;98571.38;5115543;28;20215;-67
2022/02/25 01:31:35;;;;;;;2.10;1.37;;;;;;;2.00;100.00;98580.25;5115522;28;20211;-67
2022/02/25 01:34:02;;;;;;;2.10;1.40;;;;;;;1.99;100.00;98581.16;5115477;28;20219;-66
2022/02/25 01:36:29;;;;;;;2.70;1.67;;;;;;;1.89;100.00;98582.28;5115141;28;20697;-67
2022/02/25 01:39:02;;;;;;;3.07;1.70;;;;;;;1.82;100.00;98583.38;5115445;28;20207;-67
2022/02/25 01:41:29;;;;;;;3.37;1.63;;;;;;;1.82;100.00;98588.56;5113577;28;20234;-67
2022/02/25 01:44:13;;;;;;;1.70;1.37;;;;;;;1.87;100.00;98583.22;5115431;28;20215;-67
2022/02/25 01:46:41;;;;;;;1.47;1.30;;;;;;;1.90;100.00;98594.41;5115167;28;20587;-67
2022/02/25 01:49:08;;;;;;;3.43;1.40;;;;;;;1.87;100.00;98589.31;5115350;28;20226;-67
2022/02/25 01:51:34;;;;;;;1.53;1.30;;;;;;;1.88;100.00;98600.56;5114891;28;20226;-68
2022/02/25 01:54:01;;;;;;;2.60;1.33;;;;;;;1.81;100.00;98602.50;5114808;28;20206;-68
2022/02/25 01:56:28;;;;;;;2.43;1.23;;;;;;;1.80;100.00;98615.56;5114826;28;20732;-69
2022/02/25 01:58:55;;;;;;;3.63;1.30;;;;;;;1.71;100.00;98613.22;5109924;28;20676;-68
2022/02/25 02:01:22;;;;;;;2.73;1.30;;;;;;;1.76;100.00;98621.75;5109879;28;20683;-68
2022/02/25 02:03:52;;;;;;;2.83;1.43;;;;;;;1.72;100.00;98620.97;5109997;28;20240;-66
2022/02/25 02:06:19;;;;;;;3.03;1.30;;;;;;;1.65;100.00;98627.25;5106894;28;20209;-67
2022/02/25 02:08:45;;;;;;;2.57;1.27;;;;;;;1.62;100.00;98624.75;5107376;28;20208;-67
2022/02/25 02:11:25;;;;;;;3.07;1.40;;;;;;;1.63;100.00;98629.06;5110118;28;20237;-67
2022/02/25 02:13:51;;;;;;;3.10;1.33;;;;;;;1.51;100.00;98624.16;5105082;28;20211;-69
2022/02/25 02:16:17;;;;;;;4.70;1.50;;;;;;;1.48;100.00;98625.97;5114755;28;20210;-67
2022/02/25 02:18:44;;;;;;;3.33;1.00;;;;;;;1.43;100.00;98633.91;5114371;28;20704;-67
2022/02/25 02:21:12;;;;;;;2.13;1.30;;;;;;;1.38;100.00;98635.78;5114540;28;20206;-67
2022/02/25 02:23:40;;;;;;;2.73;1.20;;;;;;;1.36;100.00;98632.34;5104450;28;20240;-67
2022/02/25 02:26:06;;;;;;;5.83;1.30;;;;;;;1.35;100.00;98640.22;5114293;28;20215;-68
2022/02/25 02:28:33;;;;;;;3.80;1.50;;;;;;;1.28;100.00;98634.28;5114606;28;20697;-67
2022/02/25 02:30:59;;;;;;;3.97;1.87;;;;;;;1.25;100.00;98644.78;5114359;28;20222;-67
2022/02/25 02:33:26;;;;;;;2.50;1.40;;;;;;;1.22;100.00;98650.06;5112707;28;20222;-67
2022/02/25 02:35:52;;;;;;;2.90;1.20;;;;;;;1.20;100.00;98651.84;5114149;28;20223;-67
2022/02/25 02:38:19;;;;;;;4.13;1.20;;;;;;;1.17;100.00;98651.91;5114313;28;20210;-69
2022/02/25 02:40:47;;;;;;;2.43;1.20;;;;;;;1.11;100.00;98657.25;5114282;28;20212;-67
2022/02/25 02:43:13;;;;;;;5.37;2.10;;;;;;;1.08;100.00;98665.16;5114202;28;20239;-68
2022/02/25 02:45:41;;;;;;;3.23;1.20;;;;;;;1.13;100.00;98670.25;5114273;28;20233;-68
2022/02/25 02:48:07;;;;;;;2.63;1.40;;;;;;;1.15;100.00;98671.94;5114157;28;20218;-67
2022/02/25 02:50:34;;;;;;;4.23;1.30;;;;;;;1.11;100.00;98674.66;5114100;28;20210;-67
2022/02/25 02:53:00;;;;;;;3.00;1.00;;;;;;;1.09;100.00;98684.22;5113757;28;20214;-68
2022/02/25 02:55:27;;;;;;;3.77;1.20;;;;;;;1.03;100.00;98679.16;5113829;28;20217;-68
2022/02/25 02:57:55;;;;;;;1.93;1.17;;;;;;;1.20;100.00;98682.22;5112900;28;20215;-68
2022/02/25 03:00:21;;;;;;;3.20;1.27;;;;;;;1.31;100.00;98685.44;5113428;28;20237;-68
2022/02/25 03:02:48;;;;;;;2.47;1.00;;;;;;;1.46;100.00;98677.22;5113814;28;20604;-68
2022/02/25 03:05:17;;;;;;;4.40;1.27;;;;;;;1.55;100.00;98685.72;5113939;28;20212;-66
2022/02/25 03:07:43;;;;;;;5.83;1.10;;;;;;;1.59;100.00;98691.69;5113812;28;20227;-67
2022/02/25 03:10:11;;;;;;;5.47;1.60;;;;;;;1.74;100.00;98692.16;5113870;28;20244;-66
2022/02/25 03:12:38;;;;;;;2.57;1.00;;;;;;;1.75;100.00;98687.78;5113486;28;20675;-69
2022/02/25 03:15:07;;;;;;;2.30;1.00;;;;;;;1.80;100.00;98685.94;5113610;28;20293;-67
2022/02/25 03:17:34;;;;;;;1.80;1.10;;;;;;;1.77;100.00;98689.47;5113670;28;20209;-66
2022/02/25 03:20:01;;;;;;;1.30;0.97;;;;;;;1.76;100.00;98692.09;5113650;28;20218;-66
2022/02/25 03:22:28;;;;;;;3.33;1.10;;;;;;;1.75;100.00;98693.88;5113588;28;20233;-67
2022/02/25 03:24:56;;;;;;;1.67;0.90;;;;;;;1.73;100.00;98693.03;5112060;28;20220;-67
2022/02/25 03:27:22;;;;;;;2.70;1.40;;;;;;;1.61;100.00;98701.16;5113266;28;20212;-67
2022/02/25 03:29:49;;;;;;;5.93;1.77;;;;;;;1.49;100.00;98701.50;5113472;28;20211;-67
2022/02/25 03:32:17;;;;;;;3.63;1.50;;;;;;;1.43;100.00;98696.44;5113457;28;20552;-67
2022/02/25 03:34:44;;;;;;;2.93;1.20;;;;;;;1.39;100.00;98699.97;5113468;28;20210;-67
2022/02/25 03:37:11;;;;;;;2.63;1.10;;;;;;;1.34;100.00;98708.78;5112689;28;20211;-67
2022/02/25 03:39:37;;;;;;;3.50;1.23;;;;;;;1.26;100.00;98711.59;5113437;28;20217;-67
2022/02/25 03:42:05;;;;;;;1.53;1.37;;;;;;;1.21;100.00;98710.84;5113053;28;20211;-67
2022/02/25 03:44:31;;;;;;;3.67;1.47;;;;;;;1.21;100.00;98705.63;5113380;28;20211;-67
2022/02/25 03:46:57;;;;;;;4.17;2.07;;;;;;;1.20;100.00;98713.47;5113327;28;20209;-67
2022/02/25 03:49:26;;;;;;;4.83;1.20;;;;;;;1.15;100.00;98713.56;5112967;28;20225;-68
2022/02/25 03:51:53;;;;;;;8.17;1.60;;;;;;;1.13;100.00;98717.97;5111553;28;20263;-68
2022/02/25 03:54:19;;;;;;;5.37;1.40;;;;;;;1.02;100.00;98709.53;5113122;28;20598;-68
2022/02/25 03:56:46;;;;;;;7.10;1.57;;;;;;;1.01;100.00;98723.44;5113400;28;20215;-68
2022/02/25 03:59:12;;;;;;;5.80;2.03;;;;;;;0.93;100.00;98720.13;5113334;28;20216;-68
2022/02/25 04:01:39;;;;;;;3.83;1.40;;;;;;;0.99;100.00;98722.59;5112976;28;20212;-68
2022/02/25 04:04:05;;;;;;;3.47;1.40;;;;;;;0.99;100.00;98722.59;5113024;28;20238;-68
2022/02/25 04:06:33;;;;;;;3.90;1.47;;;;;;;1.04;100.00;98733.78;5113282;28;20223;-68
2022/02/25 04:09:00;;;;;;;5.47;1.60;;;;;;;1.06;100.00;98734.59;5112647;28;20667;-68
2022/02/25 04:11:27;;;;;;;3.80;1.50;;;;;;;1.11;100.00;98734.50;5113176;28;20214;-69
2022/02/25 04:13:54;;;;;;;6.83;1.57;;;;;;;1.24;100.00;98743.75;5113215;28;20580;-69
2022/02/25 04:16:21;;;;;;;6.43;1.70;;;;;;;1.37;100.00;98743.44;5111352;28;20236;-68
2022/02/25 04:18:47;;;;;;;6.00;1.70;;;;;;;1.51;100.00;98746.56;5113067;28;20216;-68
2022/02/25 04:21:14;;;;;;;8.30;1.70;;;;;;;1.75;100.00;98745.97;5112865;28;20214;-67
2022/02/25 04:23:42;;;;;;;4.17;1.83;;;;;;;1.80;100.00;98746.72;5112738;28;20279;-67
2022/02/25 04:26:08;;;;;;;2.20;1.20;;;;;;;1.87;100.00;98748.28;5112783;28;20238;-67
2022/02/25 04:28:34;;;;;;;2.47;1.50;;;;;;;1.96;100.00;98755.84;5112969;28;20210;-67
2022/02/25 04:31:01;;;;;;;3.17;1.43;;;;;;;2.05;100.00;98763.47;5112599;28;20663;-67
2022/02/25 04:33:27;;;;;;;5.20;1.77;;;;;;;2.19;100.00;98757.88;5102808;28;20223;-67
2022/02/25 04:35:54;;;;;;;5.57;1.57;;;;;;;2.03;100.00;98757.41;5112923;28;20238;-67
2022/02/25 04:38:20;;;;;;;4.50;1.47;;;;;;;1.88;100.00;98762.16;5112803;28;20639;-67
2022/02/25 04:40:48;;;;;;;4.27;1.47;;;;;;;1.88;100.00;98770.84;5112799;28;20223;-67
2022/02/25 04:43:15;;;;;;;5.83;1.47;;;;;;;2.02;100.00;98768.75;5111101;28;20231;-68
2022/02/25 04:45:41;;;;;;;3.43;1.23;;;;;;;2.11;100.00;98775.47;5112552;28;20239;-68
2022/02/25 04:48:10;;;;;;;5.37;1.40;;;;;;;2.27;100.00;98769.81;5112592;28;20211;-68
2022/02/25 04:50:36;;;;;;;2.17;1.37;;;;;;;2.28;100.00;98768.91;5116211;28;20211;-68
2022/02/25 04:53:03;;;;;;;3.90;1.67;;;;;;;2.31;100.00;98766.25;5116275;28;20220;-68
2022/02/25 04:55:29;;;;;;;2.77;1.30;;;;;;;2.31;100.00;98774.06;5116542;28;20217;-68
2022/02/25 04:57:57;;;;;;;1.93;1.30;;;;;;;2.30;100.00;98782.78;5116309;28;20219;-68
2022/02/25 05:00:24;;;;;;;4.30;1.93;;;;;;;2.34;100.00;98773.13;5116168;28;20208;-69
2022/02/25 05:02:50;;;;;;;3.90;1.50;;;;;;;2.30;100.00;98772.34;5116054;28;20245;-69
2022/02/25 05:05:17;;;;;;;2.90;1.40;;;;;;;2.23;100.00;98777.75;5116192;28;20218;-69
2022/02/25 05:07:44;;;;;;;3.33;1.47;;;;;;;2.06;100.00;98790.38;5115836;28;20214;-67
2022/02/25 05:10:11;;;;;;;3.87;1.50;;;;;;;2.07;100.00;98782.50;5114758;28;20236;-66
2022/02/25 05:12:37;;;;;;;4.27;1.40;;;;;;;2.13;100.00;98784.09;5115741;28;20580;-67
2022/02/25 05:20:38;;;;;;;5.47;1.40;;;;;;;2.58;98.50;98798.56;5097739;28;20222;-66
2022/02/25 05:23:05;;;;;;;3.73;1.33;;;;;;;2.55;98.49;98799.50;5115965;28;20246;-66
2022/02/25 05:25:33;;;;;;;4.13;1.50;;;;;;;2.59;98.83;98801.13;5115871;28;20219;-67
2022/02/25 05:28:00;;;;;;;3.80;1.40;;;;;;;2.69;99.24;98807.78;5115724;28;20211;-67
2022/02/25 05:30:29;;;;;;;4.63;1.43;;;;;;;2.71;98.68;98800.81;5113449;28;20211;-67
2022/02/25 05:32:56;;;;;;;2.77;1.30;;;;;;;2.71;98.10;98806.03;5109971;28;20607;-67
2022/02/25 05:35:22;;;;;;;4.80;1.30;;;;;;;2.73;97.60;98814.66;5113984;28;20215;-67
2022/02/25 05:37:49;;;;;;;3.33;1.27;;;;;;;2.69;97.24;98815.63;5115664;28;20220;-67
2022/02/25 05:40:17;;;;;;;3.33;1.73;;;;;;;2.71;97.30;98821.69;5115609;28;20243;-67
2022/02/25 05:42:44;;;;;;;4.03;1.23;;;;;;;2.75;97.25;98820.69;5115465;28;20218;-67
2022/02/25 05:45:11;;;;;;;4.17;1.63;;;;;;;2.73;97.71;98830.31;5115438;28;20235;-67
2022/02/25 05:47:41;;;;;;;3.40;1.53;;;;;;;2.69;98.15;98833.91;5115454;28;20228;-67
2022/02/25 05:50:13;;;;;;;2.33;1.43;;;;;;;2.71;98.14;98832.13;5115255;28;20306;-67
2022/02/25 05:52:40;;;;;;;6.97;1.77;;;;;;;2.64;97.67;98840.97;5115287;28;20421;-67
2022/02/25 05:55:07;;;;;;;5.10;1.60;;;;;;;2.64;96.61;98840.97;5115193;28;20218;-67
2022/02/25 05:57:34;;;;;;;4.20;1.40;;;;;;;2.50;96.22;98852.72;5111068;28;20207;-67
2022/02/25 06:00:01;;;;;;;5.70;1.23;;;;;;;2.40;96.83;98857.28;5113262;28;20220;-67
2022/02/25 06:02:27;;;;;;;5.63;1.77;;;;;;;2.22;98.79;98852.56;5114789;28;20215;-67
2022/02/25 06:04:55;;;;;;;5.03;1.50;;;;;;;2.04;99.35;98853.00;5115048;28;20236;-67
2022/02/25 06:07:22;;;;;;;5.20;1.50;;;;;;;1.94;100.00;98856.72;5114997;28;20219;-67
2022/02/25 06:09:49;;;;;;;4.20;2.00;;;;;;;1.97;100.00;98861.84;5114820;28;20243;-67
2022/02/25 06:12:16;;;;;;;2.33;1.30;;;;;;;1.93;100.00;98855.00;5114674;28;20217;-67
2022/02/25 06:14:42;;;;;;;4.53;1.50;;;;;;;1.81;100.00;98864.84;5114553;28;20215;-67
2022/02/25 06:17:09;;;;;;;2.37;1.40;;;;;;;1.68;100.00;98869.50;5114825;28;20210;-67
2022/02/25 06:19:35;;;;;;;3.00;1.33;;;;;;;1.50;100.00;98869.03;5114517;28;20707;-67
2022/02/25 06:22:04;;;;;;;3.97;1.43;;;;;;;1.42;100.00;98871.78;5114848;28;20217;-67
2022/02/25 06:24:30;;;;;;;4.57;1.30;;;;;;;1.34;100.00;98868.50;5114355;28;20247;-67
2022/02/25 06:26:57;;;;;;;2.10;1.60;;;;;;;1.22;100.00;98873.13;5112991;28;20210;-67
2022/02/25 06:29:23;;;;;;;4.23;1.93;;;;;;;1.16;100.00;98881.91;5114214;28;20211;-67
2022/02/25 06:31:50;;;;;;;5.70;1.73;;;;;;;1.08;100.00;98878.59;5114500;28;20223;-67
2022/02/25 06:34:16;;;;;;;5.53;1.50;;;;;;;1.06;100.00;98882.94;5114456;28;20222;-67
2022/02/25 06:36:43;;;;;;;3.73;1.43;;;;;;;1.10;100.00;98883.78;5114331;28;20219;-67
2022/02/25 06:39:11;;;;;;;3.43;1.40;;;;;;;1.05;100.00;98891.66;5114237;28;20223;-67
2022/02/25 06:41:38;;;;;;;3.83;1.80;;;;;;;1.07;100.00;98884.69;5114194;28;20207;-67
2022/02/25 06:44:05;;;;;;;4.87;1.70;;;;;;;1.05;100.00;98891.66;5113852;28;20699;-67
2022/02/25 06:46:31;;;;;;;4.70;1.63;;;;;;;1.04;100.00;98891.72;5107371;28;20551;-67
2022/02/25 06:48:58;;;;;;;4.20;1.60;;;;;;;0.99;100.00;98891.78;5114252;28;20609;-67
2022/02/25 06:51:25;;;;;;;3.27;1.77;;;;;;;1.05;100.00;98896.03;5114159;28;20217;-67
2022/02/25 06:53:53;;;;;;;3.03;1.57;;;;;;;1.10;100.00;98902.00;5112714;28;20243;-67
2022/02/25 06:56:21;;;;;;;8.30;1.90;;;;;;;1.11;100.00;98901.94;5113868;28;20671;-67
2022/02/25 06:58:48;;;;;;;4.37;1.70;;;;;;;1.21;100.00;98900.88;5113696;28;20244;-67
2022/02/25 07:01:14;;;;;;;6.30;2.50;;;;;;;1.25;100.00;98904.28;5114096;28;20221;-67
2022/02/25 07:03:40;;;;;;;3.20;1.60;;;;;;;1.32;100.00;98911.06;5113909;28;20612;-67
2022/02/25 07:06:07;;;;;;;4.83;1.87;;;;;;;1.31;100.00;98902.44;5113627;28;20223;-67
2022/02/25 07:08:34;;;;;;;2.57;1.60;;;;;;;1.37;100.00;98904.91;5113783;28;20216;-67
2022/02/25 07:11:00;;;;;;;4.03;2.00;;;;;;;1.39;100.00;98910.06;5113396;28;20245;-67
2022/02/25 07:13:28;;;;;;;5.20;1.67;;;;;;;1.41;100.00;98916.94;5113571;28;20222;-67
2022/02/25 07:15:55;;;;;;;7.30;1.87;;;;;;;1.38;100.00;98911.81;5113664;28;20221;-67
2022/02/25 07:18:22;;;;;;;5.17;1.63;;;;;;;1.42;100.00;98913.44;5111992;28;20629;-66
2022/02/25 07:20:48;;;;;;;2.93;2.00;;;;;;;1.51;100.00;98913.28;5113495;28;20212;-66
2022/02/25 07:23:16;;;;;;;4.13;2.30;;;;;;;1.55;100.00;98917.53;5113589;28;20212;-67
2022/02/25 07:25:43;;;;;;;5.17;2.30;;;;;;;1.56;100.00;98924.47;5113256;28;20688;-67
2022/02/25 07:28:10;;;;;;;5.43;2.10;;;;;;;1.71;100.00;98926.72;5113355;28;20335;-67
2022/02/25 07:30:39;;;;;;;5.97;2.20;;;;;;;1.81;100.00;98922.16;5113523;28;20219;-67
2022/02/25 07:33:05;;;;;;;7.10;1.83;;;;;;;1.89;100.00;98923.72;5113179;28;20218;-67
2022/02/25 07:35:32;;;;;;;2.77;1.27;;;;;;;2.01;100.00;98925.19;5113388;28;20211;-67
2022/02/25 07:38:00;;;;;;;5.70;1.77;;;;;;;2.15;100.00;98923.97;5113171;28;20212;-67
2022/02/25 07:40:28;;;;;;;3.90;1.63;;;;;;;2.18;100.00;98934.34;5113602;28;20241;-67
2022/02/25 07:42:56;;;;;;;7.97;1.50;;;;;;;2.17;100.00;98932.63;5113612;28;20219;-67
2022/02/25 07:45:23;;;;;;;6.93;1.83;;;;;;;2.36;100.00;98928.69;5111165;28;20308;-67
2022/02/25 07:47:51;;;;;;;4.70;1.77;;;;;;;2.43;100.00;98930.25;5113310;28;20221;-66
2022/02/25 07:50:18;;;;;;;5.40;1.70;;;;;;;2.56;99.92;98942.09;5113127;28;20687;-66
2022/02/25 07:52:44;;;;;;;7.80;1.70;;;;;;;2.68;99.36;98947.00;5113464;28;20267;-68
2022/02/25 07:55:12;;;;;;;4.70;1.77;;;;;;;2.74;98.23;98946.88;5113326;28;20224;-68
2022/02/25 07:57:38;;;;;;;4.40;1.50;;;;;;;2.91;97.35;98944.69;5113056;28;20228;-68
2022/02/25 08:00:09;;;;;;;5.33;1.87;;;;;;;3.02;96.84;98933.94;5113394;28;20678;-66
2022/02/25 08:02:36;;;;;;;6.03;1.90;;;;;;;3.15;94.76;98944.03;5109078;28;20216;-66
2022/02/25 08:05:04;;;;;;;6.03;1.60;;;;;;;3.28;94.36;98950.63;5113144;28;20236;-67
2022/02/25 08:07:32;;;;;;;7.53;1.70;;;;;;;3.38;91.29;98952.09;5113251;28;20222;-66
2022/02/25 08:09:58;;;;;;;3.23;1.40;;;;;;;3.62;91.74;98950.56;5111801;28;20237;-66
2022/02/25 08:12:25;;;;;;;7.67;1.43;;;;;;;3.70;89.95;98948.56;5112491;28;20222;-66
2022/02/25 08:14:53;;;;;;;4.03;1.90;;;;;;;3.75;88.40;98950.16;5112710;28;20220;-67
2022/02/25 08:17:21;;;;;;;7.10;1.60;;;;;;;3.81;89.97;98942.13;5112828;28;20274;-66
2022/02/25 08:19:48;;;;;;;4.10;1.37;;;;;;;3.86;88.77;98950.69;5113171;28;20239;-68
2022/02/25 08:22:18;;;;;;;4.87;1.60;;;;;;;3.91;88.19;98942.72;5113200;28;20233;-68
2022/02/25 08:24:45;;;;;;;4.73;1.80;;;;;;;3.80;87.77;98948.25;5113999;28;20737;-69
2022/02/25 08:27:11;;;;;;;5.70;1.90;;;;;;;3.75;87.55;98952.78;5117000;28;20222;-69
2022/02/25 08:29:38;;;;;;;4.80;1.73;;;;;;;3.83;87.46;98945.56;5117005;28;20217;-68
2022/02/25 08:32:04;;;;;;;6.30;1.70;;;;;;;3.90;87.98;98947.06;5116885;28;20582;-68
2022/02/25 08:34:31;;;;;;;4.73;1.57;;;;;;;3.98;87.72;98944.25;5116698;28;20216;-68
2022/02/25 08:36:57;;;;;;;6.70;1.80;;;;;;;4.05;84.81;98940.53;5115050;28;20213;-68
2022/02/25 08:39:27;;;;;;;6.40;1.80;;;;;;;4.02;84.28;98933.63;5116781;28;20216;-68
2022/02/25 08:41:54;;;;;;;6.77;1.70;;;;;;;4.15;85.79;98939.34;5116479;28;20213;-69
2022/02/25 08:44:21;;;;;;;5.50;1.50;;;;;;;4.17;85.67;98929.69;5116488;28;20235;-67
2022/02/25 08:46:48;;;;;;;6.13;1.60;;;;;;;4.22;85.73;98926.00;5116155;28;20571;-67
2022/02/25 08:49:15;;;;;;;5.40;1.30;;;;;;;4.25;85.10;98928.56;5114021;28;21061;-67
2022/02/25 08:51:43;;;;;;;4.73;1.70;;;;;;;4.32;85.17;98931.81;5114578;28;20209;-67
2022/02/25 08:54:10;;;;;;;4.90;1.60;;;;;;;4.44;82.15;98924.44;5115478;28;20561;-67
2022/02/25 08:56:38;;;;;;;4.17;1.50;;;;;;;4.42;82.22;98934.09;5115180;28;20233;-67
2022/02/25 08:59:05;;;;;;;4.13;1.47;;;;;;;4.43;80.97;98925.34;5100569;28;20210;-67
2022/02/25 09:01:32;;;;;;;7.33;1.93;;;;;;;4.49;78.59;98922.53;5103590;28;20235;-68
2022/02/25 09:04:01;;;;;;;5.17;1.83;;;;;;;4.55;80.07;98932.81;5113668;28;20226;-68
2022/02/25 09:06:28;;;;;;;5.90;2.40;;;;;;;4.57;79.33;98933.59;5114464;28;20224;-68
2022/02/25 09:08:54;;;;;;;3.20;1.27;;;;;;;4.61;80.28;98927.38;5114805;28;20228;-68
2022/02/25 09:11:21;;;;;;;6.07;1.73;;;;;;;4.68;82.21;98923.63;5114652;28;20245;-68
2022/02/25 09:13:49;;;;;;;7.23;1.57;;;;;;;4.76;81.74;98916.38;5114213;28;20675;-69
2022/02/25 09:16:15;;;;;;;5.60;1.60;;;;;;;4.88;80.01;98920.34;5114870;28;20198;-69
2022/02/25 09:18:42;;;;;;;3.53;1.60;;;;;;;4.89;80.13;98922.06;5114479;28;20666;-68
2022/02/25 09:21:09;;;;;;;5.43;1.50;;;;;;;4.93;77.68;98929.75;5114022;28;20214;-68
2022/02/25 09:23:35;;;;;;;6.03;1.70;;;;;;;5.01;78.84;98927.72;5115008;28;20221;-68
2022/02/25 09:26:02;;;;;;;10.37;2.20;;;;;;;5.15;78.14;98935.97;5112206;28;20628;-69
2022/02/25 09:28:29;;;;;;;7.73;1.67;;;;;;;5.55;76.75;98931.00;5113290;28;20217;-69
2022/02/25 09:30:56;;;;;;;6.63;1.60;;;;;;;5.97;74.05;98933.81;5114719;28;20293;-69
2022/02/25 09:33:23;;;;;;;7.87;1.73;;;;;;;6.13;73.79;98941.06;5115366;28;20210;-68
2022/02/25 09:35:50;;;;;;;4.23;1.43;;;;;;;6.24;71.54;98932.75;5114780;28;20581;-69
2022/02/25 09:38:16;;;;;;;5.33;1.40;;;;;;;6.12;69.79;98933.25;5115550;28;20214;-69
2022/02/25 09:40:43;;;;;;;4.37;1.63;;;;;;;6.00;70.52;98928.47;5115331;28;20221;-68
2022/02/25 09:43:10;;;;;;;4.33;1.10;;;;;;;5.92;70.25;98943.66;5115160;28;20213;-68
2022/02/25 09:45:37;;;;;;;5.47;1.50;;;;;;;5.66;69.10;98934.09;5115005;28;20244;-68
2022/02/25 09:48:10;;;;;;;4.13;1.50;;;;;;;5.71;68.31;98947.88;5115333;28;20229;-68
2022/02/25 09:50:38;;;;;;;5.07;1.57;;;;;;;5.63;67.77;98936.81;5103077;28;20648;-68
2022/02/25 09:53:04;;;;;;;5.50;1.70;;;;;;;5.58;66.81;98941.41;5115122;28;20214;-69
2022/02/25 09:55:33;;;;;;;4.37;1.27;;;;;;;5.44;63.42;98933.16;5113672;28;20224;-68
2022/02/25 09:58:03;;;;;;;4.27;1.33;;;;;;;5.34;63.73;98942.28;5114652;28;20214;-68
2022/02/25 10:00:31;;;;;;;4.83;1.40;;;;;;;5.22;64.24;98940.09;5115209;28;20245;-68
2022/02/25 10:03:01;;;;;;;3.20;1.20;;;;;;;5.24;66.84;98943.50;5115033;28;20222;-68
2022/02/25 10:05:32;;;;;;;9.03;1.80;;;;;;;5.32;64.37;98944.06;5114866;28;20237;-68
2022/02/25 10:08:08;;;;;;;8.03;2.10;;;;;;;5.42;63.90;98942.84;5112957;28;20214;-68
2022/02/25 10:10:43;;;;;;;6.90;1.33;;;;;;;5.52;64.29;98952.09;5114527;28;20233;-68
2022/02/25 10:13:09;;;;;;;5.53;0.97;;;;;;;5.57;61.65;98944.91;5114981;28;20213;-68
2022/02/25 10:15:37;;;;;;;5.43;1.30;;;;;;;5.67;62.03;98946.28;5114606;28;20221;-69
2022/02/25 10:18:06;;;;;;;4.83;1.30;;;;;;;5.74;60.92;98947.75;5114353;28;20299;-69
2022/02/25 10:20:34;;;;;;;6.47;1.40;;;;;;;5.89;60.50;98947.25;5113285;28;20616;-69
2022/02/25 10:23:01;;;;;;;2.70;1.30;;;;;;;5.97;57.58;98955.66;5114565;28;20217;-69
2022/02/25 10:25:33;;;;;;;3.17;1.03;;;;;;;6.21;58.62;98949.47;5114521;28;20238;-69
2022/02/25 10:27:59;;;;;;;3.00;0.90;;;;;;;6.55;57.58;98939.38;5102400;28;20210;-68
2022/02/25 10:30:27;;;;;;;4.47;1.27;;;;;;;6.90;56.06;98936.13;5114378;28;20217;-69
2022/02/25 10:32:56;;;;;;;5.77;1.00;;;;;;;7.27;56.63;98932.78;5114339;28;20218;-69
2022/02/25 10:35:26;;;;;;;3.67;1.20;;;;;;;7.34;56.55;98938.56;5114002;28;20264;-68
2022/02/25 10:38:06;;;;;;;5.27;1.40;;;;;;;7.46;55.95;98938.03;5114222;28;20208;-69
2022/02/25 10:40:35;;;;;;;4.73;1.47;;;;;;;7.46;55.96;98937.16;5114283;28;20214;-68
2022/02/25 10:43:03;;;;;;;3.93;1.30;;;;;;;7.52;55.31;98932.50;5114307;28;20211;-69
2022/02/25 10:45:33;;;;;;;6.17;1.43;;;;;;;7.35;55.86;98945.53;5113811;28;20241;-68
2022/02/25 10:48:02;;;;;;;4.23;1.27;;;;;;;6.95;56.16;98939.41;5112509;28;20218;-69
2022/02/25 10:50:29;;;;;;;3.83;1.20;;;;;;;6.79;58.84;98943.59;5114202;28;20211;-68
2022/02/25 10:52:56;;;;;;;4.13;1.30;;;;;;;6.91;57.84;98937.00;5113999;28;20221;-69
2022/02/25 10:55:26;;;;;;;3.40;1.30;;;;;;;7.18;56.38;98923.53;5113881;28;20221;-68
2022/02/25 10:57:54;;;;;;;4.30;1.20;;;;;;;7.32;54.12;98939.56;5113756;28;20214;-69
2022/02/25 11:00:22;;;;;;;2.73;1.00;;;;;;;7.43;54.50;98932.91;5113779;28;20666;-68
2022/02/25 11:02:50;;;;;;;4.13;1.10;;;;;;;7.56;52.81;98922.69;5113859;28;20221;-68
2022/02/25 11:05:19;;;;;;;4.67;1.07;;;;;;;7.65;52.29;98932.81;5101116;28;20258;-69
2022/02/25 11:07:47;;;;;;;7.27;1.50;;;;;;;7.76;52.03;98930.53;5113621;28;20218;-68
2022/02/25 11:10:16;;;;;;;2.70;1.23;;;;;;;7.99;54.26;98925.06;5113319;28;20714;-69
2022/02/25 11:12:49;;;;;;;4.00;1.10;;;;;;;8.05;52.84;98932.69;5110895;28;20210;-69
2022/02/25 11:15:17;;;;;;;4.57;0.90;;;;;;;8.06;52.11;98934.41;5113944;28;20209;-70
2022/02/25 11:17:45;;;;;;;4.67;1.20;;;;;;;8.20;51.34;98927.59;5113808;28;20310;-68
2022/02/25 11:20:14;;;;;;;3.07;1.20;;;;;;;8.38;52.13;98921.44;5113622;28;20216;-68
2022/02/25 11:22:41;;;;;;;4.83;1.60;;;;;;;8.26;51.25;98931.75;5111245;28;20228;-69
2022/02/25 11:25:12;;;;;;;6.87;1.13;;;;;;;8.53;51.14;98930.41;5113701;28;20234;-69
2022/02/25 11:27:38;;;;;;;6.07;1.93;;;;;;;8.57;50.98;98937.25;5113337;28;20211;-69
2022/02/25 11:30:09;;;;;;;5.60;1.43;;;;;;;8.38;49.14;98931.16;5113596;28;20220;-69
2022/02/25 11:32:53;;;;;;;5.47;1.50;;;;;;;8.35;50.77;98929.53;5113300;28;20223;-68
2022/02/25 11:35:21;;;;;;;6.80;1.23;;;;;;;8.34;49.97;98935.69;5113587;28;20227;-68
2022/02/25 11:37:51;;;;;;;6.80;1.10;;;;;;;8.45;50.94;98937.84;5113178;28;20208;-68
2022/02/25 11:40:18;;;;;;;4.90;1.50;;;;;;;8.41;50.34;98936.25;5111712;28;20209;-68
2022/02/25 11:42:49;;;;;;;3.53;1.10;;;;;;;8.39;50.33;98932.84;5113441;28;20209;-68